sensor_id;sensor_type;location;lat;lon;timestamp;P1;durP1;ratioP1;P2;durP2;ratioP2
21899;SDS011;11114;50.658;12.704;2024-02-16T16:55:10;16.30;;;15.10;;
21899;SDS011;11114;50.658;12.704;2024-02-16T16:57:57;16.40;;;15.10;;
21899;SDS011;11114;50.658;12.704;2024-02-16T17:00:51;16.75;;;15.50;;
21899;SDS011;11114;50.658;12.704;2024-02-16T17:03:38;16.55;;;15.35;;
21899;SDS011;11114;50.658;12.704;2024-02-16T17:06:27;17.67;;;16.27;;
21899;SDS011;11114;50.658;12.704;2024-02-16T17:09:14;15.90;;;14.68;;
21899;SDS011;11114;50.658;12.704;2024-02-16T17:12:02;15.88;;;14.65;;
21899;SDS011;11114;50.658;12.704;2024-02-16T17:14:51;15.48;;;14.38;;
21899;SDS011;11114;50.658;12.704;2024-02-16T17:17:39;15.43;;;14.32;;
21899;SDS011;11114;50.658;12.704;2024-02-16T17:20:29;15.35;;;14.25;;
21899;SDS011;11114;50.658;12.704;2024-02-16T17:23:16;15.73;;;14.43;;
21899;SDS011;11114;50.658;12.704;2024-02-16T17:26:01;16.00;;;14.80;;
21899;SDS011;11114;50.658;12.704;2024-02-16T17:28:49;15.98;;;14.77;;
21899;SDS011;11114;50.658;12.704;2024-02-16T17:31:35;15.32;;;14.23;;
21899;SDS011;11114;50.658;12.704;2024-02-16T17:34:25;15.52;;;14.43;;
21899;SDS011;11114;50.658;12.704;2024-02-16T17:37:12;16.30;;;15.10;;
21899;SDS011;11114;50.658;12.704;2024-02-16T17:39:59;15.68;;;14.57;;
21899;SDS011;11114;50.658;12.704;2024-02-16T17:42:45;16.15;;;14.85;;
21899;SDS011;11114;50.658;12.704;2024-02-16T17:45:34;15.38;;;14.13;;
21899;SDS011;11114;50.658;12.704;2024-02-16T17:48:21;16.45;;;15.25;;
21899;SDS011;11114;50.658;12.704;2024-02-16T17:51:07;16.00;;;14.80;;
21899;SDS011;11114;50.658;12.704;2024-02-16T17:53:56;17.00;;;15.65;;
21899;SDS011;11114;50.658;12.704;2024-02-16T17:56:43;15.95;;;14.60;;
21899;SDS011;11114;50.658;12.704;2024-02-16T17:59:30;16.95;;;15.65;;
21899;SDS011;11114;50.658;12.704;2024-02-16T18:02:17;16.27;;;15.05;;
21899;SDS011;11114;50.658;12.704;2024-02-16T18:05:23;15.30;;;14.10;;
21899;SDS011;11114;50.658;12.704;2024-02-16T18:08:11;15.95;;;14.60;;
21899;SDS011;11114;50.658;12.704;2024-02-16T18:10:58;15.80;;;14.52;;
21899;SDS011;11114;50.658;12.704;2024-02-16T18:13:44;17.05;;;15.55;;
21899;SDS011;11114;50.658;12.704;2024-02-16T18:16:33;16.73;;;15.32;;
21899;SDS011;11114;50.658;12.704;2024-02-16T18:19:20;16.65;;;15.35;;
21899;SDS011;11114;50.658;12.704;2024-02-16T18:22:07;16.95;;;15.65;;
21899;SDS011;11114;50.658;12.704;2024-02-16T18:24:54;16.88;;;15.57;;
21899;SDS011;11114;50.658;12.704;2024-02-16T18:27:41;16.90;;;15.68;;
21899;SDS011;11114;50.658;12.704;2024-02-16T18:30:27;17.05;;;15.65;;
21899;SDS011;11114;50.658;12.704;2024-02-16T18:33:14;17.20;;;15.77;;
21899;SDS011;11114;50.658;12.704;2024-02-16T18:36:01;16.98;;;15.57;;
21899;SDS011;11114;50.658;12.704;2024-02-16T18:38:51;17.20;;;15.80;;
21899;SDS011;11114;50.658;12.704;2024-02-16T18:41:38;16.73;;;15.48;;
21899;SDS011;11114;50.658;12.704;2024-02-16T18:44:25;17.00;;;15.48;;
21899;SDS011;11114;50.658;12.704;2024-02-16T18:47:11;17.10;;;15.60;;
21899;SDS011;11114;50.658;12.704;2024-02-16T18:49:58;17.48;;;15.98;;
21899;SDS011;11114;50.658;12.704;2024-02-16T18:52:46;17.02;;;15.70;;
21899;SDS011;11114;50.658;12.704;2024-02-16T18:55:33;17.67;;;15.93;;
21899;SDS011;11114;50.658;12.704;2024-02-16T18:58:22;17.23;;;15.73;;
21899;SDS011;11114;50.658;12.704;2024-02-16T19:01:09;17.63;;;16.13;;
21899;SDS011;11114;50.658;12.704;2024-02-16T19:03:56;17.17;;;15.68;;
21899;SDS011;11114;50.658;12.704;2024-02-16T19:06:45;17.40;;;16.00;;
21899;SDS011;11114;50.658;12.704;2024-02-16T19:09:32;18.20;;;16.40;;
21899;SDS011;11114;50.658;12.704;2024-02-16T19:12:18;18.52;;;16.95;;
21899;SDS011;11114;50.658;12.704;2024-02-16T19:15:05;16.83;;;15.43;;
21899;SDS011;11114;50.658;12.704;2024-02-16T19:17:53;17.60;;;16.08;;
21899;SDS011;11114;50.658;12.704;2024-02-16T19:20:40;17.00;;;15.60;;
21899;SDS011;11114;50.658;12.704;2024-02-16T19:23:27;17.85;;;16.45;;
21899;SDS011;11114;50.658;12.704;2024-02-16T19:26:13;17.25;;;15.70;;
21899;SDS011;11114;50.658;12.704;2024-02-16T19:28:59;17.27;;;15.75;;
21899;SDS011;11114;50.658;12.704;2024-02-16T19:31:47;17.05;;;15.57;;
21899;SDS011;11114;50.658;12.704;2024-02-16T19:34:38;17.25;;;16.02;;
21899;SDS011;11114;50.658;12.704;2024-02-16T19:37:25;18.17;;;16.42;;
21899;SDS011;11114;50.658;12.704;2024-02-16T19:40:17;18.05;;;16.40;;
21899;SDS011;11114;50.658;12.704;2024-02-16T19:43:03;16.98;;;15.50;;
21899;SDS011;11114;50.658;12.704;2024-02-16T19:45:52;16.83;;;15.50;;
21899;SDS011;11114;50.658;12.704;2024-02-16T19:48:39;16.98;;;15.57;;
21899;SDS011;11114;50.658;12.704;2024-02-16T19:51:26;16.70;;;15.50;;
21899;SDS011;11114;50.658;12.704;2024-02-16T19:54:13;16.77;;;15.57;;
21899;SDS011;11114;50.658;12.704;2024-02-16T19:57:02;17.90;;;16.50;;
21899;SDS011;11114;50.658;12.704;2024-02-16T19:59:49;17.50;;;16.10;;
21899;SDS011;11114;50.658;12.704;2024-02-16T20:02:36;17.88;;;16.52;;
21899;SDS011;11114;50.658;12.704;2024-02-16T20:05:23;17.30;;;15.63;;
21899;SDS011;11114;50.658;12.704;2024-02-16T20:08:10;17.83;;;16.25;;
21899;SDS011;11114;50.658;12.704;2024-02-16T20:10:57;18.02;;;16.38;;
21899;SDS011;11114;50.658;12.704;2024-02-16T20:13:44;17.70;;;16.40;;
21899;SDS011;11114;50.658;12.704;2024-02-16T20:16:35;17.55;;;16.05;;
21899;SDS011;11114;50.658;12.704;2024-02-16T20:22:11;17.75;;;16.35;;
21899;SDS011;11114;50.658;12.704;2024-02-16T20:24:57;17.38;;;15.98;;
21899;SDS011;11114;50.658;12.704;2024-02-16T20:27:45;17.38;;;15.88;;
21899;SDS011;11114;50.658;12.704;2024-02-16T20:30:31;18.00;;;16.50;;
21899;SDS011;11114;50.658;12.704;2024-02-16T20:33:18;17.65;;;16.35;;
21899;SDS011;11114;50.658;12.704;2024-02-16T20:36:07;18.02;;;16.42;;
21899;SDS011;11114;50.658;12.704;2024-02-16T20:39:01;17.83;;;16.40;;
21899;SDS011;11114;50.658;12.704;2024-02-16T20:41:51;18.50;;;16.95;;
21899;SDS011;11114;50.658;12.704;2024-02-16T20:44:37;18.65;;;17.00;;
21899;SDS011;11114;50.658;12.704;2024-02-16T20:47:23;18.33;;;16.83;;
21899;SDS011;11114;50.658;12.704;2024-02-16T20:50:13;18.55;;;16.75;;
21899;SDS011;11114;50.658;12.704;2024-02-16T20:53:01;17.27;;;15.85;;
21899;SDS011;11114;50.658;12.704;2024-02-16T20:55:48;17.77;;;16.15;;
21899;SDS011;11114;50.658;12.704;2024-02-16T20:58:35;17.55;;;16.10;;
21899;SDS011;11114;50.658;12.704;2024-02-16T21:01:30;17.20;;;15.68;;
21899;SDS011;11114;50.658;12.704;2024-02-16T21:04:31;17.10;;;15.75;;
21899;SDS011;11114;50.658;12.704;2024-02-16T21:07:18;17.90;;;16.20;;
21899;SDS011;11114;50.658;12.704;2024-02-16T21:10:05;17.60;;;16.20;;
21899;SDS011;11114;50.658;12.704;2024-02-16T21:12:52;17.55;;;16.08;;
21899;SDS011;11114;50.658;12.704;2024-02-16T21:15:39;17.13;;;15.63;;
21899;SDS011;11114;50.658;12.704;2024-02-16T21:18:26;18.20;;;16.70;;
21899;SDS011;11114;50.658;12.704;2024-02-16T21:21:13;18.05;;;16.60;;
21899;SDS011;11114;50.658;12.704;2024-02-16T21:23:59;18.05;;;16.55;;
21899;SDS011;11114;50.658;12.704;2024-02-16T21:26:47;18.13;;;16.50;;
21899;SDS011;11114;50.658;12.704;2024-02-16T21:29:35;17.88;;;16.20;;
21899;SDS011;11114;50.658;12.704;2024-02-16T21:32:23;17.02;;;15.73;;
21899;SDS011;11114;50.658;12.704;2024-02-16T21:35:09;17.35;;;15.95;;
21899;SDS011;11114;50.658;12.704;2024-02-16T21:37:56;17.80;;;16.23;;
21899;SDS011;11114;50.658;12.704;2024-02-16T21:40:42;18.00;;;16.40;;
21899;SDS011;11114;50.658;12.704;2024-02-16T21:43:29;17.27;;;15.98;;
21899;SDS011;11114;50.658;12.704;2024-02-16T21:46:29;17.40;;;16.00;;
21899;SDS011;11114;50.658;12.704;2024-02-16T21:49:17;17.13;;;15.77;;
21899;SDS011;11114;50.658;12.704;2024-02-16T21:52:05;19.08;;;17.40;;
21899;SDS011;11114;50.658;12.704;2024-02-16T21:54:52;18.77;;;16.88;;
21899;SDS011;11114;50.658;12.704;2024-02-16T21:57:38;18.60;;;17.10;;
21899;SDS011;11114;50.658;12.704;2024-02-16T22:00:25;18.52;;;16.92;;
21899;SDS011;11114;50.658;12.704;2024-02-16T22:03:11;18.13;;;16.40;;
21899;SDS011;11114;50.658;12.704;2024-02-16T22:05:59;18.38;;;16.67;;
21899;SDS011;11114;50.658;12.704;2024-02-16T22:08:55;18.95;;;17.38;;
21899;SDS011;11114;50.658;12.704;2024-02-16T22:11:50;18.20;;;16.80;;
21899;SDS011;11114;50.658;12.704;2024-02-16T22:14:37;18.88;;;17.33;;
21899;SDS011;11114;50.658;12.704;2024-02-16T22:17:23;19.33;;;17.52;;
21899;SDS011;11114;50.658;12.704;2024-02-16T22:20:10;19.02;;;17.40;;
21899;SDS011;11114;50.658;12.704;2024-02-16T22:22:57;19.42;;;17.80;;
21899;SDS011;11114;50.658;12.704;2024-02-16T22:25:44;19.02;;;17.42;;
21899;SDS011;11114;50.658;12.704;2024-02-16T22:28:31;19.02;;;17.25;;
21899;SDS011;11114;50.658;12.704;2024-02-16T22:31:17;20.17;;;17.88;;
21899;SDS011;11114;50.658;12.704;2024-02-16T22:34:05;19.83;;;18.02;;
21899;SDS011;11114;50.658;12.704;2024-02-16T22:36:52;19.83;;;18.05;;
21899;SDS011;11114;50.658;12.704;2024-02-16T22:39:38;19.52;;;17.73;;
21899;SDS011;11114;50.658;12.704;2024-02-16T22:42:25;20.10;;;18.30;;
21899;SDS011;11114;50.658;12.704;2024-02-16T22:45:13;22.08;;;19.75;;
21899;SDS011;11114;50.658;12.704;2024-02-16T22:47:59;20.95;;;19.05;;
21899;SDS011;11114;50.658;12.704;2024-02-16T22:50:47;19.50;;;18.00;;
21899;SDS011;11114;50.658;12.704;2024-02-16T22:53:35;21.55;;;19.65;;
21899;SDS011;11114;50.658;12.704;2024-02-16T22:56:22;20.85;;;18.77;;
21899;SDS011;11114;50.658;12.704;2024-02-16T22:59:09;20.40;;;18.63;;
21899;SDS011;11114;50.658;12.704;2024-02-16T23:01:56;20.70;;;18.80;;
21899;SDS011;11114;50.658;12.704;2024-02-16T23:04:42;19.98;;;18.38;;
21899;SDS011;11114;50.658;12.704;2024-02-16T23:07:34;21.85;;;19.90;;
21899;SDS011;11114;50.658;12.704;2024-02-16T23:10:20;21.98;;;20.05;;
21899;SDS011;11114;50.658;12.704;2024-02-16T23:13:10;21.55;;;19.33;;
21899;SDS011;11114;50.658;12.704;2024-02-16T23:15:57;21.10;;;19.00;;
21899;SDS011;11114;50.658;12.704;2024-02-16T23:18:43;23.85;;;21.63;;
21899;SDS011;11114;50.658;12.704;2024-02-16T23:21:30;22.83;;;20.73;;
21899;SDS011;11114;50.658;12.704;2024-02-16T23:24:17;22.25;;;20.30;;
21899;SDS011;11114;50.658;12.704;2024-02-16T23:27:04;22.25;;;20.25;;
21899;SDS011;11114;50.658;12.704;2024-02-16T23:29:50;23.45;;;21.27;;
21899;SDS011;11114;50.658;12.704;2024-02-16T23:32:39;22.70;;;20.50;;
21899;SDS011;11114;50.658;12.704;2024-02-16T23:35:26;22.63;;;20.73;;
21899;SDS011;11114;50.658;12.704;2024-02-16T23:38:12;22.10;;;20.00;;
21899;SDS011;11114;50.658;12.704;2024-02-16T23:41:00;22.10;;;19.90;;
21899;SDS011;11114;50.658;12.704;2024-02-16T23:43:47;21.30;;;19.40;;
21899;SDS011;11114;50.658;12.704;2024-02-16T23:46:34;23.38;;;21.30;;
21899;SDS011;11114;50.658;12.704;2024-02-16T23:49:22;23.55;;;21.27;;
